Latest Weather Observations for Shark Bay Airport

IDW60801

Issued at 7:32 am WST Wednesday 25 May 2016 (issued every 30 minutes, with the page automatically refreshed every 10 minutes)

About weather observations | Map of weather stations | Latest weather observations for WA | Other Formats
Station Details ID: 006105 Name: SHARK BAY AIRPORT Lat: -25.89 Lon: 113.58 Height: 33.8 m
Data from the previous 72 hours. | See also: Recent months at Shark Bay Airport
Date/Time
WST
Temp
°C
App
Temp
°C
Dew
Point
Rel
Hum
%
Delta-T
°C
Wind Press
QNH
hPa
Press
MSL
hPa
Rain
since 9 am
mm
Dir
 
Spd
km/h
Gust
km/h
Spd
kts
Gust
kts
25/07:30am 17.8 17.6 16.7 93 0.7 SSE 13 19 7 10 1013.1 1013.0 6.0
25/07:00am 17.8 16.8 16.7 93 0.7 S 17 26 9 14 1012.8 1012.7 6.0
25/06:30am 18.0 16.7 16.9 93 0.7 S 19 26 10 14 1012.5 1012.4 6.0
25/06:00am 18.5 18.5 17.3 93 0.7 SSW 13 17 7 9 1012.2 1012.1 6.0
25/05:30am 18.2 18.9 17.0 93 0.7 S 9 13 5 7 1011.9 1011.8 6.0
25/05:00am 18.4 18.4 17.2 93 0.7 SSE 13 15 7 8 1011.7 1011.6 5.6
25/04:30am 18.6 19.1 17.4 93 0.7 S 11 15 6 8 1011.8 1011.7 5.6
25/04:00am 19.0 20.0 17.8 93 0.7 SSW 9 13 5 7 1011.7 1011.6 5.6
25/03:30am 18.9 19.9 17.7 93 0.7 SSW 9 11 5 6 1011.6 1011.5 5.6
25/03:00am 18.8 20.3 17.6 93 0.7 S 6 9 3 5 1011.5 1011.4 5.6
25/02:30am 18.9 20.3 17.7 93 0.7 SSW 7 11 4 6 1011.8 1011.7 5.6
25/02:00am 19.1 20.2 17.9 93 0.7 SSW 9 13 5 7 1011.6 1011.5 5.6
25/01:30am 19.1 19.8 17.9 93 0.7 S 11 13 6 7 1011.6 1011.5 5.6
25/01:00am 19.2 19.5 17.9 92 0.8 S 13 22 7 12 1011.8 1011.7 5.6
25/12:30am 19.8 20.4 18.5 92 0.8 SSW 13 17 7 9 1012.0 1011.9 5.6
25/12:00am 20.4 21.3 19.2 93 0.8 WNW 13 19 7 10 1011.8 1011.7 5.4
 
Date/Time
WST
Temp
°C
App
Temp
°C
Dew
Point
Rel
Hum
%
Delta-T
°C
Wind Press
QNH
hPa
Press
MSL
hPa
Rain
since 9 am
mm
Dir
 
Spd
km/h
Gust
km/h
Spd
kts
Gust
kts
24/11:30pm 20.5 21.4 19.3 93 0.8 WNW 13 17 7 9 1012.0 1011.9 5.4
24/11:00pm 20.5 21.4 19.2 92 0.8 WNW 13 17 7 9 1012.1 1012.0 5.4
24/10:30pm 20.6 21.1 19.3 92 0.8 WNW 15 19 8 10 1012.0 1011.9 5.2
24/10:00pm 20.7 21.3 19.4 92 0.8 WNW 15 19 8 10 1012.1 1012.0 4.8
24/09:30pm 20.9 21.6 19.6 92 0.8 WNW 15 17 8 9 1012.2 1012.1 4.6
24/09:00pm 20.8 21.4 19.5 92 0.8 WNW 15 17 8 9 1012.3 1012.2 4.4
24/08:30pm 20.9 22.2 19.4 91 1.0 WNW 11 13 6 7 1012.5 1012.4 4.0
24/08:00pm 20.9 21.9 19.4 91 1.0 W 13 19 7 10 1012.3 1012.2 2.8
24/07:30pm 21.6 22.0 19.9 90 1.1 WNW 17 26 9 14 1012.2 1012.1 1.0
24/07:00pm 21.6 21.1 19.9 90 1.1 NNW 22 32 12 17 1011.7 1011.6 0.0
24/06:30pm 21.6 21.5 19.9 90 1.1 NNW 20 28 11 15 1011.5 1011.4 0.0
24/06:00pm 21.3 20.7 19.8 91 1.0 NNW 22 28 12 15 1011.2 1011.1 0.0
24/05:30pm 21.4 20.4 19.7 90 1.1 NW 24 32 13 17 1011.2 1011.1 0.0
24/05:00pm 21.6 21.0 19.7 89 1.2 NW 22 33 12 18 1011.2 1011.1 0.0
24/04:30pm 22.3 21.2 19.5 84 1.8 NW 24 37 13 20 1011.2 1011.1 0.0
24/04:00pm 22.8 20.8 19.2 80 2.3 NW 28 37 15 20 1011.2 1011.1 0.0
24/03:30pm 23.0 20.7 18.5 76 2.8 NW 28 43 15 23 1011.1 1011.0 0.0
24/03:00pm 23.8 20.6 18.2 71 3.5 NW 32 44 17 24 1011.0 1010.9 0.0
24/02:30pm 24.5 22.1 18.2 68 4.0 NW 28 39 15 21 1010.9 1010.8 0.0
24/02:00pm 24.3 20.9 17.8 67 4.1 NW 32 44 17 24 1011.0 1010.9 0.0
24/01:30pm 24.4 20.7 17.4 65 4.4 NNW 33 43 18 23 1011.2 1011.1 0.0
24/01:00pm 24.9 22.0 17.1 62 4.8 NNW 28 41 15 22 1011.4 1011.3 0.0
24/12:30pm 24.9 21.8 17.4 63 4.7 NW 30 41 16 22 1011.8 1011.7 0.0
24/12:00pm 25.3 22.1 17.2 61 5.0 NW 30 39 16 21 1012.3 1012.2 0.0
24/11:30am 24.9 21.8 17.6 64 4.6 NW 30 39 16 21 1012.5 1012.4 0.0
24/11:00am 23.8 21.8 17.5 68 3.9 NW 24 33 13 18 1012.9 1012.8 0.0
24/10:30am 23.1 20.6 17.1 69 3.7 NW 26 35 14 19 1013.2 1013.1 0.0
24/10:00am 23.4 21.0 16.4 64 4.3 NW 24 35 13 19 1013.2 1013.1 0.0
24/09:30am 22.9 20.4 16.2 66 4.1 NW 24 35 13 19 1013.1 1013.0 0.0
24/09:00am 23.1 19.7 15.9 64 4.4 NW 28 35 15 19 1012.9 1012.8 0.0
24/08:30am 22.9 21.7 17.1 70 3.6 NW 19 24 10 13 1012.9 1012.8 0.0
24/08:00am 19.9 20.2 16.9 83 1.8 N 11 13 6 7 1012.6 1012.5 0.0
24/07:30am 18.8 19.3 16.6 87 1.3 N 9 11 5 6 1012.7 1012.6 0.0
24/07:00am 18.1 18.7 15.9 87 1.3 N 7 9 4 5 1012.3 1012.2 0.0
24/06:30am 18.3 18.8 16.5 89 1.1 NNW 9 13 5 7 1012.3 1012.2 0.0
24/06:00am 17.6 17.8 15.8 89 1.1 NW 9 13 5 7 1012.2 1012.1 0.0
24/05:30am 17.4 17.2 15.6 89 1.1 NW 11 11 6 6 1012.1 1012.0 0.0
24/05:00am 17.5 18.1 15.7 89 1.1 NNW 7 9 4 5 1011.9 1011.8 0.0
24/04:30am 17.5 17.3 15.8 90 1.0 NNW 11 13 6 7 1012.0 1011.9 0.0
24/04:00am 17.0 16.7 15.5 91 0.9 NW 11 13 6 7 1012.1 1012.0 0.0
24/03:30am 16.6 15.8 15.1 91 0.9 NNW 13 15 7 8 1012.5 1012.4 0.0
24/03:00am 15.8 14.7 14.3 91 0.9 NNW 13 15 7 8 1012.3 1012.2 0.0
24/02:30am 15.7 14.6 14.2 91 0.9 NW 13 15 7 8 1012.4 1012.3 0.0
24/02:00am 15.3 14.0 13.7 90 0.9 NW 13 13 7 7 1012.7 1012.6 0.0
24/01:30am 15.3 14.4 13.7 90 0.9 NW 11 13 6 7 1012.7 1012.6 0.0
24/01:00am 15.4 14.1 13.8 90 0.9 NW 13 15 7 8 1013.0 1012.9 0.0
24/12:30am 14.8 13.7 13.0 89 1.0 NNW 11 11 6 6 1013.2 1013.1 0.0
24/12:00am 15.2 13.8 13.4 89 1.0 NW 13 15 7 8 1013.5 1013.4 0.0
 
Date/Time
WST
Temp
°C
App
Temp
°C
Dew
Point
Rel
Hum
%
Delta-T
°C
Wind Press
QNH
hPa
Press
MSL
hPa
Rain
since 9 am
mm
Dir
 
Spd
km/h
Gust
km/h
Spd
kts
Gust
kts
23/11:30pm 15.1 13.7 13.3 89 1.0 WNW 13 15 7 8 1013.8 1013.7 0.0
23/11:00pm 15.0 13.1 13.0 88 1.1 WNW 15 17 8 9 1014.0 1013.9 0.0
23/10:30pm 15.2 13.7 13.1 87 1.2 NW 13 15 7 8 1014.1 1014.0 0.0
23/10:00pm 15.5 14.0 13.2 86 1.3 NW 13 15 7 8 1014.1 1014.0 0.0
23/09:30pm 15.6 14.1 13.1 85 1.4 WNW 13 15 7 8 1014.3 1014.2 0.0
23/09:00pm 15.6 14.3 12.5 82 1.7 WNW 11 13 6 7 1014.4 1014.3 0.0
23/08:30pm 15.9 13.9 12.8 82 1.7 WNW 15 15 8 8 1014.3 1014.2 0.0
23/08:00pm 16.1 14.5 12.8 81 1.8 WNW 13 15 7 8 1014.5 1014.4 0.0
23/07:30pm 16.1 14.0 12.5 79 2.0 WNW 15 17 8 9 1014.5 1014.4 0.0
23/07:00pm 16.2 14.6 11.4 73 2.6 WNW 11 13 6 7 1014.3 1014.2 0.0
23/06:30pm 16.9 15.0 10.5 66 3.4 NW 11 13 6 7 1014.0 1013.9 0.0
23/06:00pm 18.2 16.0 9.5 57 4.6 NW 11 13 6 7 1013.6 1013.5 0.0
23/05:30pm 20.0 17.1 9.6 51 5.5 W 15 20 8 11 1013.7 1013.6 0.0
23/05:00pm 21.0 18.9 11.1 53 5.5 WSW 13 17 7 9 1013.4 1013.3 0.0
23/04:30pm 22.7 19.8 9.8 44 7.0 W 15 19 8 10 1013.1 1013.0 0.0
23/04:00pm 25.0 23.0 8.5 35 8.9 WNW 9 15 5 8 1012.9 1012.8 0.0
23/03:30pm 25.2 23.4 9.5 37 8.6 WNW 9 17 5 9 1013.0 1012.9 0.0
23/03:00pm 24.4 21.0 9.2 38 8.2 W 17 20 9 11 1013.6 1013.5 0.0
23/02:30pm 25.8 23.0 6.9 30 9.9 WNW 11 17 6 9 1013.8 1013.7 0.0
23/02:00pm 25.1 21.5 6.8 31 9.5 W 15 20 8 11 1014.4 1014.3 0.0
23/01:30pm 25.4 22.6 5.1 27 10.3 NE 9 17 5 9 1015.0 1014.9 0.0
23/01:00pm 24.7 21.1 5.0 28 9.9 NNE 13 19 7 10 1015.4 1015.3 0.0
23/12:30pm 24.1 21.1 5.9 31 9.3 ENE 11 17 6 9 1015.9 1015.8 0.0
23/12:00pm 23.5 20.1 5.9 32 8.9 NE 13 20 7 11 1016.4 1016.3 0.0
23/11:30am 22.2 18.1 6.0 35 8.2 ENE 17 24 9 13 1016.6 1016.5 0.0
23/11:00am 21.2 17.0 5.9 37 7.7 ENE 17 24 9 13 1017.2 1017.1 0.0
23/10:30am 20.6 17.0 6.9 41 7.0 ENE 15 24 8 13 1018.0 1017.9 0.0
23/10:00am 19.7 15.4 7.1 44 6.4 ENE 19 26 10 14 1018.1 1018.0 0.0
23/09:30am 18.8 14.6 7.6 48 5.7 E 19 24 10 13 1018.4 1018.3 0.0
23/09:00am 17.8 13.5 7.8 52 5.1 E 20 28 11 15 1018.7 1018.6 0.0
23/08:30am 16.3 13.4 9.7 65 3.4 E 15 22 8 12 1018.7 1018.6 0.0
23/08:00am 13.3 11.0 10.5 83 1.5 E 13 17 7 9 1018.7 1018.6 0.0
23/07:30am 9.2 5.7 7.2 87 0.9 ESE 15 17 8 9 1018.6 1018.5 0.0
23/07:00am 9.1 5.5 6.9 86 1.0 SE 15 15 8 8 1018.7 1018.6 0.0
23/06:30am 9.7 6.7 7.6 87 1.0 SE 13 15 7 8 1018.8 1018.7 0.0
23/06:00am 9.8 6.8 7.7 87 1.0 ESE 13 13 7 7 1018.5 1018.4 0.0
23/05:30am 9.8 6.8 7.6 86 1.1 ESE 13 15 7 8 1018.3 1018.2 0.0
23/05:00am 9.9 6.9 7.8 87 1.0 ESE 13 15 7 8 1018.4 1018.3 0.0
23/04:30am 9.5 5.9 6.9 84 1.2 ESE 15 15 8 8 1018.3 1018.2 0.0
23/04:00am 10.7 7.9 8.5 86 1.1 SE 13 15 7 8 1018.6 1018.5 0.0
23/03:30am 9.8 6.3 7.2 84 1.2 ESE 15 17 8 9 1018.7 1018.6 0.0
23/03:00am 10.1 6.6 7.2 82 1.4 ESE 15 15 8 8 1019.1 1019.0 0.0
23/02:30am 10.9 7.5 7.8 81 1.5 ESE 15 17 8 9 1019.3 1019.2 0.0
23/02:00am 11.7 8.6 8.7 82 1.5 ESE 15 19 8 10 1019.5 1019.4 0.0
23/01:30am 10.8 7.1 8.0 83 1.4 ESE 17 17 9 9 1019.7 1019.6 0.0
23/01:00am 11.0 7.7 8.2 83 1.4 ESE 15 17 8 9 1020.1 1020.0 0.0
23/12:30am 11.1 7.9 8.3 83 1.4 SE 15 15 8 8 1020.5 1020.4 0.0
23/12:00am 11.3 8.5 8.5 83 1.4 SE 13 15 7 8 1020.6 1020.5 0.0
 
Date/Time
WST
Temp
°C
App
Temp
°C
Dew
Point
Rel
Hum
%
Delta-T
°C
Wind Press
QNH
hPa
Press
MSL
hPa
Rain
since 9 am
mm
Dir
 
Spd
km/h
Gust
km/h
Spd
kts
Gust
kts
22/11:30pm 11.7 8.9 8.7 82 1.5 SSE 13 15 7 8 1020.7 1020.6 0.0
22/11:00pm 12.7 10.2 9.7 82 1.5 SSE 13 13 7 7 1020.5 1020.4 0.0
22/10:30pm 13.0 11.0 10.0 82 1.5 SSE 11 13 6 7 1020.2 1020.1 0.0
22/10:00pm 13.8 11.5 10.4 80 1.8 SSE 13 15 7 8 1020.3 1020.2 0.0
22/09:30pm 14.6 12.7 10.4 76 2.2 SSE 11 15 6 8 1020.4 1020.3 0.0
22/09:00pm 15.0 12.3 10.4 74 2.4 SSE 15 19 8 10 1019.8 1019.7 0.0
22/08:30pm 14.9 12.1 10.1 73 2.5 SSE 15 17 8 9 1019.6 1019.5 0.0
22/08:00pm 15.4 13.1 10.4 72 2.6 S 13 15 7 8 1019.6 1019.5 0.0
22/07:30pm 15.4 13.0 10.0 70 2.8 S 13 15 7 8 1019.4 1019.3 0.0
22/07:00pm 16.2 13.7 9.8 66 3.3 S 13 17 7 9 1019.1 1019.0 0.0
22/06:30pm 16.7 14.2 8.4 58 4.2 SSE 11 13 6 7 1018.3 1018.2 0.0
22/06:00pm 18.1 15.2 8.1 52 5.1 SSE 13 17 7 9 1018.2 1018.1 0.0
22/05:30pm 19.4 16.0 7.8 47 6.0 SSE 15 20 8 11 1018.7 1018.6 0.0
22/05:00pm 20.3 16.5 7.7 44 6.5 SE 17 24 9 13 1018.7 1018.6 0.0
22/04:30pm 20.9 17.1 7.5 42 6.9 SE 17 24 9 13 1019.2 1019.1 0.0
22/04:00pm 21.1 16.9 7.3 41 7.1 ESE 19 28 10 15 1018.8 1018.7 0.0
22/03:30pm 21.4 17.2 7.6 41 7.1 SE 19 28 10 15 1018.8 1018.7 0.0
22/03:00pm 21.7 17.5 7.5 40 7.3 ESE 19 28 10 15 1018.9 1018.8 0.0
22/02:30pm 21.3 17.5 7.5 41 7.1 SE 17 28 9 15 1019.1 1019.0 0.0
22/02:00pm 21.2 17.0 7.4 41 7.1 SE 19 32 10 17 1019.4 1019.3 0.0
22/01:30pm 21.2 17.4 7.4 41 7.1 SE 17 32 9 17 1019.3 1019.2 0.0
22/01:00pm 21.2 17.0 7.4 41 7.1 SSE 19 30 10 16 1019.4 1019.3 0.0
22/12:30pm 21.0 16.6 7.6 42 6.9 ESE 20 30 11 16 1019.7 1019.6 0.0
22/12:00pm 20.8 16.6 8.1 44 6.6 ESE 20 32 11 17 1020.0 1019.9 0.0
22/11:30am 20.4 16.2 8.1 45 6.4 ESE 20 32 11 17 1020.3 1020.2 0.0
22/11:00am 20.3 16.0 8.0 45 6.4 ESE 20 30 11 16 1020.5 1020.4 0.0
22/10:30am 20.2 16.3 8.5 47 6.1 E 19 26 10 14 1020.8 1020.7 0.0
22/10:00am 19.6 15.8 8.9 50 5.6 E 19 24 10 13 1020.7 1020.6 0.0
22/09:30am 19.3 15.5 9.8 54 5.1 ESE 20 28 11 15 1020.6 1020.5 0.0
22/09:00am 18.1 13.5 9.5 57 4.5 ESE 24 33 13 18 1020.2 1020.1 -
22/08:30am 17.5 14.1 10.4 63 3.8 E 19 26 10 14 1019.9 1019.8 -
22/08:00am 16.7 14.6 11.0 69 3.1 E 13 15 7 8 1019.5 1019.4 -

Other Formats:

Comma delimited format used in spreadsheet applications
http://www.bom.gov.au/fwo/IDW60801/IDW60801.95402.axf

JavaScript Object Notation format (JSON) in row-major order
http://www.bom.gov.au/fwo/IDW60801/IDW60801.95402.json